createdAt,value
2017-09-19T00:00:08.548Z,16.05
2017-09-19T00:02:35.213Z,16.65
2017-09-19T00:05:01.903Z,16.90
2017-09-19T00:07:28.568Z,16.45
2017-09-19T00:09:55.260Z,16.25
2017-09-19T00:12:21.925Z,17.23
2017-09-19T00:14:48.628Z,15.82
2017-09-19T00:17:15.296Z,17.10
2017-09-19T00:19:41.961Z,16.60
2017-09-19T00:22:08.631Z,18.55
2017-09-19T00:24:35.303Z,17.20
2017-09-19T00:27:01.968Z,16.35
2017-09-19T00:29:28.644Z,16.60
2017-09-19T00:31:55.304Z,15.32
2017-09-19T00:34:21.967Z,16.70
2017-09-19T00:36:48.660Z,16.77
2017-09-19T00:39:15.323Z,18.42
2017-09-19T00:41:42.015Z,17.90
2017-09-19T00:44:08.684Z,16.35
2017-09-19T00:46:35.360Z,17.15
2017-09-19T00:49:02.027Z,18.60
2017-09-19T00:51:28.687Z,19.70
2017-09-19T00:53:55.371Z,16.48
2017-09-19T00:56:22.035Z,18.08
2017-09-19T00:58:48.728Z,16.50
2017-09-19T01:01:15.391Z,13.40
2017-09-19T01:03:42.087Z,16.15
2017-09-19T01:06:08.747Z,15.80
2017-09-19T01:08:35.415Z,17.90
2017-09-19T01:11:02.080Z,12.98
2017-09-19T01:13:28.751Z,16.25
2017-09-19T01:15:55.422Z,16.37
2017-09-19T01:18:22.083Z,18.15
2017-09-19T01:20:48.751Z,16.58
2017-09-19T01:23:15.415Z,17.23
2017-09-19T01:25:42.103Z,17.42
2017-09-19T01:28:08.770Z,13.93
2017-09-19T01:30:35.476Z,16.98
2017-09-19T01:33:02.141Z,16.45
2017-09-19T01:35:28.807Z,16.20
2017-09-19T01:37:55.484Z,16.75
2017-09-19T01:40:22.156Z,18.17
2017-09-19T01:42:48.825Z,15.80
2017-09-19T01:45:15.487Z,16.17
2017-09-19T01:47:42.159Z,16.35
2017-09-19T01:50:08.827Z,16.23
2017-09-19T01:52:36.360Z,17.27
2017-09-19T01:55:03.028Z,18.05
2017-09-19T01:57:29.692Z,20.42
2017-09-19T01:59:56.355Z,17.45
2017-09-19T02:02:23.020Z,19.80
2017-09-19T02:04:49.684Z,19.83
2017-09-19T02:07:16.351Z,18.48
2017-09-19T02:09:43.011Z,19.20
2017-09-19T02:12:09.679Z,19.08
2017-09-19T02:14:36.368Z,18.42
2017-09-19T02:17:03.031Z,17.00
2017-09-19T02:19:29.732Z,16.17
2017-09-19T02:21:56.397Z,17.23
2017-09-19T02:24:23.096Z,15.60
2017-09-19T02:26:49.763Z,14.63
2017-09-19T02:29:16.427Z,16.42
2017-09-19T02:31:43.092Z,14.05
2017-09-19T02:34:09.755Z,14.05
2017-09-19T02:36:36.420Z,15.02
2017-09-19T02:39:03.100Z,15.95
2017-09-19T02:41:29.796Z,13.23
2017-09-19T02:43:56.459Z,13.18
2017-09-19T02:46:23.188Z,12.20
2017-09-19T02:48:49.852Z,13.40
2017-09-19T02:51:16.515Z,12.93
2017-09-19T02:53:43.197Z,12.48
2017-09-19T02:56:09.874Z,12.63
2017-09-19T02:58:36.539Z,11.55
2017-09-19T03:01:03.203Z,12.23
2017-09-19T03:03:29.892Z,11.88
2017-09-19T03:05:56.559Z,12.30
2017-09-19T03:08:23.220Z,12.68
2017-09-19T03:10:49.888Z,12.18
2017-09-19T03:13:16.552Z,10.57
2017-09-19T03:15:43.220Z,12.68
2017-09-19T03:18:09.891Z,12.82
2017-09-19T03:20:36.559Z,10.50
2017-09-19T03:23:03.223Z,11.05
2017-09-19T03:25:29.901Z,12.65
2017-09-19T03:27:56.571Z,13.05
2017-09-19T03:30:23.234Z,12.43
2017-09-19T03:32:49.907Z,11.90
2017-09-19T03:35:16.568Z,12.00
2017-09-19T03:37:43.255Z,13.10
2017-09-19T03:40:09.925Z,12.93
2017-09-19T03:42:36.613Z,12.52
2017-09-19T03:45:03.275Z,14.00
2017-09-19T03:47:29.945Z,13.10
2017-09-19T03:49:56.616Z,13.75
2017-09-19T03:52:23.288Z,12.32
2017-09-19T03:54:50.004Z,13.55
2017-09-19T03:57:16.708Z,12.63
2017-09-19T03:59:43.391Z,11.85
2017-09-19T04:02:10.056Z,11.57
2017-09-19T04:04:36.719Z,13.10
2017-09-19T04:07:03.379Z,11.90
2017-09-19T04:09:30.043Z,12.18
2017-09-19T04:11:56.712Z,12.77
2017-09-19T04:14:23.377Z,12.52
2017-09-19T04:16:50.072Z,16.10
2017-09-19T04:19:16.752Z,15.20
2017-09-19T04:21:43.440Z,20.05
2017-09-19T04:24:10.116Z,18.00
2017-09-19T04:26:36.816Z,49.08
2017-09-19T04:29:03.483Z,13.65
2017-09-19T04:31:30.171Z,15.20
2017-09-19T04:33:56.841Z,12.88
2017-09-19T04:36:23.504Z,14.48
2017-09-19T04:38:50.176Z,14.60
2017-09-19T04:41:16.836Z,12.45
2017-09-19T04:43:43.500Z,13.50
2017-09-19T04:46:10.196Z,13.20
2017-09-19T04:48:36.893Z,12.27
2017-09-19T04:51:03.567Z,12.85
2017-09-19T04:53:30.259Z,11.20
2017-09-19T04:55:56.925Z,11.88
2017-09-19T04:58:23.639Z,12.35
2017-09-19T05:00:50.315Z,13.95
2017-09-19T05:03:17.011Z,13.43
2017-09-19T05:05:43.679Z,14.10
2017-09-19T05:08:10.370Z,13.50
2017-09-19T05:10:37.035Z,14.02
2017-09-19T05:13:03.699Z,14.10
2017-09-19T05:15:30.364Z,14.87
2017-09-19T05:17:57.024Z,16.98
2017-09-19T05:20:23.692Z,14.60
2017-09-19T05:22:50.372Z,13.85
2017-09-19T05:25:17.061Z,14.80
2017-09-19T05:27:43.732Z,13.62
2017-09-19T05:30:10.424Z,15.13
2017-09-19T05:32:37.091Z,15.00
2017-09-19T05:35:03.787Z,13.82
2017-09-19T05:37:30.455Z,13.73
2017-09-19T05:39:57.148Z,13.65
2017-09-19T05:42:23.819Z,14.23
2017-09-19T05:44:50.596Z,13.57
2017-09-19T05:47:17.260Z,13.62
2017-09-19T05:49:43.963Z,14.87
2017-09-19T05:52:10.624Z,16.87
2017-09-19T05:54:37.296Z,18.45
2017-09-19T05:57:03.960Z,16.75
2017-09-19T05:59:30.632Z,16.70
2017-09-19T06:01:57.300Z,17.55
2017-09-19T06:04:23.967Z,16.60
2017-09-19T06:06:50.660Z,22.92
2017-09-19T06:09:23.136Z,19.90
2017-09-19T06:11:49.839Z,16.90
2017-09-19T06:14:16.504Z,16.12
2017-09-19T06:16:43.208Z,18.00
2017-09-19T06:19:09.875Z,16.45
2017-09-19T06:21:36.544Z,16.92
2017-09-19T06:24:03.208Z,15.52
2017-09-19T06:26:29.872Z,15.15
2017-09-19T06:28:56.536Z,14.57
2017-09-19T06:31:23.200Z,14.82
2017-09-19T06:33:49.863Z,14.18
2017-09-19T06:36:16.532Z,15.02
2017-09-19T06:38:43.219Z,15.32
2017-09-19T06:41:09.892Z,15.95
2017-09-19T06:43:36.605Z,15.00
2017-09-19T06:46:03.271Z,15.38
2017-09-19T06:48:29.975Z,14.25
2017-09-19T06:50:56.639Z,15.05
2017-09-19T06:53:23.309Z,14.60
2017-09-19T06:55:49.976Z,13.27
2017-09-19T06:58:16.639Z,13.98
2017-09-19T07:00:43.329Z,13.45
2017-09-19T07:03:10.004Z,13.73
2017-09-19T07:05:36.704Z,13.95
2017-09-19T07:08:03.367Z,14.30
2017-09-19T07:10:30.059Z,13.10
2017-09-19T07:12:56.733Z,13.13
2017-09-19T07:15:23.433Z,14.93
2017-09-19T07:17:50.124Z,11.68
2017-09-19T07:20:16.816Z,12.65
2017-09-19T07:22:43.519Z,13.30
2017-09-19T07:25:10.191Z,13.75
2017-09-19T07:27:36.884Z,13.57
2017-09-19T07:30:03.553Z,14.00
2017-09-19T07:32:30.243Z,14.32
2017-09-19T07:34:56.913Z,13.90
2017-09-19T07:37:23.600Z,14.10
2017-09-19T07:39:50.272Z,14.80
2017-09-19T07:42:16.968Z,14.68
2017-09-19T07:44:43.640Z,14.80
2017-09-19T07:47:10.307Z,14.82
2017-09-19T07:49:36.983Z,15.48
2017-09-19T07:52:03.652Z,16.52
2017-09-19T07:54:30.324Z,16.98
2017-09-19T07:56:56.987Z,16.62
2017-09-19T07:59:23.680Z,16.55
2017-09-19T08:01:50.347Z,14.73
2017-09-19T08:04:17.046Z,16.17
2017-09-19T08:06:43.732Z,16.83
2017-09-19T08:09:10.433Z,17.10
2017-09-19T08:11:37.096Z,17.17
2017-09-19T08:14:03.787Z,16.92
2017-09-19T08:16:30.483Z,18.17
2017-09-19T08:18:57.183Z,17.98
2017-09-19T08:21:23.855Z,18.60
2017-09-19T08:23:50.527Z,19.62
2017-09-19T08:26:17.205Z,19.50
2017-09-19T08:28:43.868Z,19.90
2017-09-19T08:31:10.537Z,20.05
2017-09-19T08:33:37.213Z,21.30
2017-09-19T08:36:03.894Z,19.12
2017-09-19T08:38:30.575Z,24.02
2017-09-19T08:40:57.240Z,24.10
2017-09-19T08:43:23.906Z,24.33
2017-09-19T08:45:50.940Z,23.50
2017-09-19T08:48:17.603Z,22.30
2017-09-19T08:50:44.320Z,23.27
2017-09-19T08:53:10.996Z,23.80
2017-09-19T08:55:37.935Z,23.98
2017-09-19T08:58:04.599Z,23.92
2017-09-19T09:00:31.273Z,23.77
2017-09-19T09:02:57.940Z,26.80
2017-09-19T09:05:24.612Z,25.33
2017-09-19T09:07:51.275Z,25.15
2017-09-19T09:10:17.950Z,25.73
2017-09-19T09:12:44.624Z,23.40
2017-09-19T09:15:11.316Z,23.98
2017-09-19T09:17:38.004Z,25.02
2017-09-19T09:20:04.680Z,24.35
2017-09-19T09:22:31.387Z,26.80
2017-09-19T09:24:58.063Z,24.85
2017-09-19T09:27:24.740Z,24.65
2017-09-19T09:29:51.405Z,23.62
2017-09-19T09:32:18.079Z,26.08
2017-09-19T09:34:44.750Z,27.62
2017-09-19T09:37:11.421Z,26.83
2017-09-19T09:39:38.087Z,26.17
2017-09-19T09:42:04.761Z,27.02
2017-09-19T09:44:31.422Z,27.20
2017-09-19T09:46:58.094Z,26.67
2017-09-19T09:49:24.784Z,28.15
2017-09-19T09:51:51.448Z,29.65
2017-09-19T09:54:18.139Z,29.65
2017-09-19T09:56:44.813Z,29.63
2017-09-19T09:59:11.479Z,30.23
2017-09-19T10:01:38.156Z,29.27
2017-09-19T10:04:04.867Z,30.43
2017-09-19T10:06:31.546Z,28.80
2017-09-19T10:08:58.211Z,30.10
2017-09-19T10:11:24.876Z,31.27
2017-09-19T10:13:51.539Z,30.53
2017-09-19T10:16:18.207Z,30.13
2017-09-19T10:18:44.915Z,30.13
2017-09-19T10:21:11.627Z,26.75
2017-09-19T10:23:38.296Z,29.80
2017-09-19T10:26:04.963Z,26.23
2017-09-19T10:28:31.632Z,28.25
2017-09-19T10:30:58.304Z,25.62
2017-09-19T10:33:24.971Z,26.62
2017-09-19T10:35:51.644Z,27.55
2017-09-19T10:38:18.324Z,27.58
2017-09-19T10:40:44.995Z,24.40
2017-09-19T10:43:11.691Z,22.77
2017-09-19T10:45:38.368Z,23.48
2017-09-19T10:48:05.040Z,23.40
2017-09-19T10:50:31.713Z,22.73
2017-09-19T10:52:58.387Z,20.35
2017-09-19T10:55:25.085Z,19.17
2017-09-19T10:57:51.764Z,20.58
2017-09-19T11:00:18.459Z,20.10
2017-09-19T11:02:45.143Z,21.25
2017-09-19T11:05:11.836Z,22.40
2017-09-19T11:07:38.510Z,21.92
2017-09-19T11:10:05.199Z,20.10
2017-09-19T11:12:31.871Z,20.93
2017-09-19T11:14:58.573Z,23.10
2017-09-19T11:17:25.239Z,24.57
2017-09-19T11:19:51.905Z,21.80
2017-09-19T11:22:18.567Z,21.77
2017-09-19T11:24:45.236Z,20.93
2017-09-19T11:27:11.928Z,18.53
2017-09-19T11:29:38.596Z,20.70
2017-09-19T11:32:05.283Z,17.97
2017-09-19T11:34:31.946Z,19.90
2017-09-19T11:36:58.649Z,18.90
2017-09-19T11:39:25.312Z,17.30
2017-09-19T11:41:51.999Z,14.20
2017-09-19T11:44:18.663Z,14.50
2017-09-19T11:46:45.356Z,14.43
2017-09-19T11:49:12.023Z,15.30
2017-09-19T11:51:38.716Z,14.17
2017-09-19T11:54:05.383Z,15.37
2017-09-19T11:56:32.120Z,14.53
2017-09-19T11:58:58.767Z,17.10
2017-09-19T12:01:25.433Z,15.10
2017-09-19T12:03:52.114Z,14.63
2017-09-19T12:06:19.115Z,13.90
2017-09-19T12:08:45.816Z,14.87
2017-09-19T12:11:12.480Z,14.90
2017-09-19T12:13:39.164Z,13.13
2017-09-19T12:16:05.836Z,14.73
2017-09-19T12:18:32.527Z,13.77
2017-09-19T12:20:59.192Z,16.10
2017-09-19T12:23:26.741Z,17.53
2017-09-19T12:25:53.411Z,17.17
2017-09-19T12:28:20.079Z,15.82
2017-09-19T12:30:46.752Z,17.12
2017-09-19T12:33:13.437Z,17.05
2017-09-19T12:35:40.111Z,15.85
2017-09-19T12:38:06.783Z,15.90
2017-09-19T12:40:33.483Z,17.05
2017-09-19T12:43:00.164Z,16.25
2017-09-19T12:45:26.897Z,16.15
2017-09-19T12:47:53.585Z,16.40
2017-09-19T12:50:20.385Z,14.82
2017-09-19T12:52:47.057Z,14.40
2017-09-19T12:55:13.728Z,15.15
2017-09-19T12:57:40.400Z,16.10
2017-09-19T13:00:07.073Z,16.37
2017-09-19T13:02:33.751Z,16.23
2017-09-19T13:05:00.427Z,17.20
2017-09-19T13:07:27.148Z,17.58
2017-09-19T13:09:53.821Z,17.50
2017-09-19T13:12:20.516Z,16.20
2017-09-19T13:14:47.188Z,17.73
2017-09-19T13:17:13.890Z,20.12
2017-09-19T13:19:40.558Z,19.20
2017-09-19T13:22:07.263Z,18.37
2017-09-19T13:24:33.927Z,18.80
2017-09-19T13:27:00.588Z,19.80
2017-09-19T13:29:27.255Z,23.17
2017-09-19T13:31:59.720Z,20.90
2017-09-19T13:34:26.392Z,20.15
2017-09-19T13:36:53.092Z,21.10
2017-09-19T13:39:19.755Z,21.00
2017-09-19T13:41:46.424Z,22.42
2017-09-19T13:44:13.120Z,21.55
2017-09-19T13:46:39.789Z,20.88
2017-09-19T13:49:06.477Z,21.77
2017-09-19T13:51:33.139Z,20.62
2017-09-19T13:53:59.832Z,21.12
2017-09-19T13:56:26.496Z,19.67
2017-09-19T13:58:53.159Z,18.75
2017-09-19T14:01:19.823Z,19.25
2017-09-19T14:03:46.490Z,20.88
2017-09-19T14:06:13.168Z,20.67
2017-09-19T14:08:39.839Z,21.05
2017-09-19T14:11:06.527Z,21.00
2017-09-19T14:13:33.191Z,19.80
2017-09-19T14:15:59.895Z,20.85
2017-09-19T14:18:26.559Z,20.42
2017-09-19T14:20:53.223Z,20.45
2017-09-19T14:23:19.888Z,21.73
2017-09-19T14:25:46.558Z,22.02
2017-09-19T14:28:13.218Z,20.37
2017-09-19T14:30:39.902Z,20.95
2017-09-19T14:33:06.580Z,19.58
2017-09-19T14:35:33.243Z,21.50
2017-09-19T14:37:59.908Z,21.65
2017-09-19T14:40:26.575Z,21.62
2017-09-19T14:42:53.239Z,20.85
2017-09-19T14:45:19.908Z,22.40
2017-09-19T14:47:46.601Z,19.73
2017-09-19T14:50:13.272Z,18.40
2017-09-19T14:52:39.984Z,18.67
2017-09-19T14:55:06.656Z,17.10
2017-09-19T14:57:33.328Z,15.90
2017-09-19T14:59:59.995Z,16.52
2017-09-19T15:02:26.664Z,17.48
2017-09-19T15:04:53.336Z,17.10
2017-09-19T15:07:20.035Z,19.33
2017-09-19T15:09:46.708Z,19.48
2017-09-19T15:12:13.384Z,17.83
2017-09-19T15:14:40.076Z,19.23
2017-09-19T15:17:06.739Z,17.17
2017-09-19T15:19:33.444Z,18.05
2017-09-19T15:22:00.108Z,19.20
2017-09-19T15:24:26.775Z,19.33
2017-09-19T15:26:53.441Z,17.60
2017-09-19T15:29:20.112Z,17.73
2017-09-19T15:31:46.776Z,19.42
2017-09-19T15:34:13.649Z,17.50
2017-09-19T15:36:40.312Z,17.00
2017-09-19T15:39:06.979Z,16.02
2017-09-19T15:41:33.671Z,16.15
2017-09-19T15:44:00.340Z,16.87
2017-09-19T15:46:27.008Z,18.27
2017-09-19T15:48:53.688Z,19.05
2017-09-19T15:51:20.386Z,19.52
2017-09-19T15:53:47.052Z,19.00
2017-09-19T15:56:13.724Z,17.30
2017-09-19T15:58:40.396Z,20.95
2017-09-19T16:01:07.068Z,19.25
2017-09-19T16:03:33.742Z,19.30
2017-09-19T16:06:01.067Z,20.00
2017-09-19T16:08:27.727Z,19.70
2017-09-19T16:10:54.438Z,18.35
2017-09-19T16:13:21.109Z,20.50
2017-09-19T16:15:47.796Z,19.00
2017-09-19T16:18:14.551Z,19.50
2017-09-19T16:20:41.297Z,21.33
2017-09-19T16:23:07.968Z,20.90
2017-09-19T16:25:34.718Z,21.52
2017-09-19T16:28:01.439Z,20.37
2017-09-19T16:30:28.105Z,18.55
2017-09-19T16:32:54.796Z,20.10
2017-09-19T16:35:21.493Z,19.00
2017-09-19T16:37:48.321Z,20.10
2017-09-19T16:40:15.036Z,20.08
2017-09-19T16:42:41.720Z,19.35
2017-09-19T16:45:08.438Z,18.70
2017-09-19T16:47:35.140Z,17.27
2017-09-19T16:50:01.851Z,18.55
2017-09-19T16:52:28.560Z,18.70
2017-09-19T16:54:55.237Z,18.10
2017-09-19T16:57:21.911Z,18.85
2017-09-19T16:59:48.676Z,19.08
2017-09-19T17:02:15.342Z,19.10
2017-09-19T17:04:42.015Z,17.70
2017-09-19T17:07:08.748Z,18.75
2017-09-19T17:09:35.440Z,18.83
2017-09-19T17:12:02.107Z,17.58
2017-09-19T17:14:28.795Z,20.48
2017-09-19T17:16:55.467Z,20.12
2017-09-19T17:19:22.162Z,21.45
2017-09-19T17:21:48.826Z,21.17
2017-09-19T17:24:15.523Z,22.35
2017-09-19T17:26:42.187Z,22.90
2017-09-19T17:29:08.855Z,20.55
2017-09-19T17:31:35.544Z,22.23
2017-09-19T17:34:02.212Z,24.08
2017-09-19T17:36:28.888Z,22.85
2017-09-19T17:38:56.672Z,23.62
2017-09-19T17:41:23.345Z,22.33
2017-09-19T17:43:50.011Z,22.95
2017-09-19T17:46:16.679Z,22.30
2017-09-19T17:48:43.362Z,21.20
2017-09-19T17:51:10.032Z,20.95
2017-09-19T17:53:36.757Z,21.20
2017-09-19T17:56:03.469Z,23.50
2017-09-19T17:58:30.135Z,21.45
2017-09-19T18:00:56.815Z,20.85
2017-09-19T18:03:23.489Z,22.20
2017-09-19T18:05:50.274Z,22.50
2017-09-19T18:08:16.936Z,22.87
2017-09-19T18:10:43.608Z,23.17
2017-09-19T18:13:10.272Z,20.15
2017-09-19T18:15:36.935Z,20.00
2017-09-19T18:18:03.600Z,20.25
2017-09-19T18:20:30.268Z,19.42
2017-09-19T18:22:56.963Z,20.35
2017-09-19T18:25:23.627Z,21.73
2017-09-19T18:27:50.288Z,20.12
2017-09-19T18:30:16.964Z,21.50
2017-09-19T18:32:43.655Z,21.70
2017-09-19T18:35:10.327Z,24.37
2017-09-19T18:37:36.994Z,23.75
2017-09-19T18:40:03.666Z,21.95
2017-09-19T18:42:30.334Z,23.10
2017-09-19T18:44:57.007Z,22.65
2017-09-19T18:47:23.692Z,24.83
2017-09-19T18:49:50.383Z,24.73
2017-09-19T18:52:17.043Z,25.12
2017-09-19T18:54:43.803Z,24.17
2017-09-19T18:57:10.467Z,24.60
2017-09-19T18:59:37.131Z,24.98
2017-09-19T19:02:03.795Z,24.83
2017-09-19T19:04:30.463Z,23.85
2017-09-19T19:06:57.147Z,25.73
2017-09-19T19:09:23.813Z,22.98
2017-09-19T19:11:50.516Z,23.67
2017-09-19T19:14:17.213Z,22.27
2017-09-19T19:16:43.908Z,21.95
2017-09-19T19:19:10.571Z,22.67
2017-09-19T19:21:37.276Z,24.30
2017-09-19T19:24:03.939Z,25.15
2017-09-19T19:26:30.627Z,22.62
2017-09-19T19:28:57.292Z,20.25
2017-09-19T19:31:23.995Z,21.77
2017-09-19T19:33:50.665Z,20.20
2017-09-19T19:36:17.342Z,20.92
2017-09-19T19:38:44.019Z,20.40
2017-09-19T19:41:10.693Z,19.92
2017-09-19T19:43:37.387Z,21.10
2017-09-19T19:46:04.056Z,21.15
2017-09-19T19:48:30.763Z,19.98
2017-09-19T19:50:57.439Z,20.60
2017-09-19T19:53:24.157Z,19.60
2017-09-19T19:55:50.849Z,19.37
2017-09-19T19:58:17.511Z,19.33
2017-09-19T20:00:44.200Z,18.40
2017-09-19T20:03:10.871Z,19.95
2017-09-19T20:05:37.544Z,19.45
2017-09-19T20:08:04.208Z,19.80
2017-09-19T20:10:30.899Z,20.83
2017-09-19T20:12:57.565Z,18.48
2017-09-19T20:15:24.267Z,19.25
2017-09-19T20:17:50.936Z,21.40
2017-09-19T20:20:17.639Z,21.33
2017-09-19T20:22:44.307Z,20.23
2017-09-19T20:25:11.017Z,20.73
2017-09-19T20:27:37.773Z,21.08
2017-09-19T20:30:04.455Z,21.30
2017-09-19T20:32:31.120Z,21.55
2017-09-19T20:34:57.783Z,20.12
2017-09-19T20:37:24.452Z,21.58
2017-09-19T20:39:51.118Z,21.73
2017-09-19T20:42:17.783Z,21.05
2017-09-19T20:44:44.453Z,20.52
2017-09-19T20:47:11.139Z,20.73
2017-09-19T20:49:37.817Z,21.75
2017-09-19T20:52:04.512Z,22.98
2017-09-19T20:54:31.180Z,22.40
2017-09-19T20:56:57.884Z,20.90
2017-09-19T20:59:24.547Z,20.98
2017-09-19T21:01:51.211Z,21.83
2017-09-19T21:04:23.707Z,23.45
2017-09-19T21:06:56.205Z,21.12
2017-09-19T21:09:28.520Z,21.77
2017-09-19T21:12:00.920Z,24.63
2017-09-19T21:14:33.336Z,24.12
2017-09-19T21:17:05.796Z,23.75
2017-09-19T21:19:32.095Z,24.73
2017-09-19T21:21:58.763Z,23.67
2017-09-19T21:24:25.427Z,22.73
2017-09-19T21:26:52.116Z,22.77
2017-09-19T21:29:18.811Z,24.30
2017-09-19T21:31:45.471Z,24.35
2017-09-19T21:34:12.159Z,23.50
2017-09-19T21:36:38.823Z,25.10
2017-09-19T21:39:05.492Z,23.67
2017-09-19T21:41:32.155Z,23.15
2017-09-19T21:43:58.827Z,23.62
2017-09-19T21:46:25.496Z,25.10
2017-09-19T21:48:52.163Z,25.17
2017-09-19T21:51:18.823Z,25.77
2017-09-19T21:53:45.483Z,25.35
2017-09-19T21:56:12.176Z,27.42
2017-09-19T21:58:38.847Z,27.40
2017-09-19T22:01:05.511Z,28.15
2017-09-19T22:03:32.196Z,26.02
2017-09-19T22:05:58.863Z,28.20
2017-09-19T22:08:25.528Z,30.17
2017-09-19T22:10:52.192Z,29.23
2017-09-19T22:13:18.856Z,27.77
2017-09-19T22:15:45.528Z,29.92
2017-09-19T22:18:12.191Z,27.00
2017-09-19T22:20:38.855Z,29.30
2017-09-19T22:23:05.520Z,28.10
2017-09-19T22:25:32.195Z,29.25
2017-09-19T22:27:58.884Z,29.40
2017-09-19T22:30:25.552Z,29.90
2017-09-19T22:32:52.247Z,29.83
2017-09-19T22:35:18.911Z,27.75
2017-09-19T22:37:45.575Z,28.80
2017-09-19T22:40:12.239Z,28.05
2017-09-19T22:42:38.903Z,28.75
2017-09-19T22:45:05.572Z,28.85
2017-09-19T22:47:32.235Z,27.75
2017-09-19T22:49:58.895Z,28.40
2017-09-19T22:52:25.560Z,30.73
2017-09-19T22:54:52.231Z,29.48
2017-09-19T22:57:19.692Z,30.62
2017-09-19T22:59:46.355Z,30.45
2017-09-19T23:02:13.019Z,31.33
2017-09-19T23:04:39.740Z,32.95
2017-09-19T23:07:06.393Z,31.83
2017-09-19T23:09:33.060Z,34.13
2017-09-19T23:11:59.729Z,34.40
2017-09-19T23:14:26.395Z,34.25
2017-09-19T23:16:53.059Z,35.70
2017-09-19T23:19:19.720Z,35.78
2017-09-19T23:21:46.384Z,35.60
2017-09-19T23:24:13.051Z,38.50
2017-09-19T23:26:39.716Z,37.40
2017-09-19T23:29:06.383Z,36.78
2017-09-19T23:31:33.057Z,37.97
2017-09-19T23:34:00.001Z,38.47
2017-09-19T23:36:26.687Z,38.83
2017-09-19T23:38:53.362Z,40.28
2017-09-19T23:41:20.032Z,39.50
2017-09-19T23:43:46.695Z,40.63
2017-09-19T23:46:13.359Z,40.80
2017-09-19T23:48:40.028Z,41.37
2017-09-19T23:51:06.700Z,42.03
2017-09-19T23:53:33.369Z,44.50
2017-09-19T23:56:00.040Z,42.85
2017-09-19T23:58:26.703Z,43.78
